Time;durP1;ratioP1;P1;durP2;ratioP2;P2;SDS_P1;SDS_P2;PMS_P1;PMS_P2;Temp;Humidity;BMP_temperature;BMP_pressure;BME280_temperature;BME280_humidity;BME280_pressure;Samples;Min_cycle;Max_cycle;Signal;HPM_P1;HPM_P2
2022/08/10 00:05:16;;;;;;;0.47;0.22;;;;;;;22.98;38.68;102518.25;16129590;19;130364;-51
2022/08/10 00:10:38;;;;;;;0.77;0.25;;;;;;;22.98;38.83;102523.81;16132729;19;131237;-51
2022/08/10 00:16:00;;;;;;;0.35;0.22;;;;;;;22.98;38.85;102518.25;16129899;19;129481;-53
2022/08/10 00:21:23;;;;;;;0.90;0.30;;;;;;;22.98;38.84;102512.66;16127040;19;130883;-51
2022/08/10 00:26:47;;;;;;;0.68;0.30;;;;;;;22.98;38.70;102507.06;16127864;19;130484;-52
2022/08/10 00:32:29;;;;;;;0.45;0.30;;;;;;;22.97;38.83;102508.16;16132327;19;129602;-52
2022/08/10 00:37:51;;;;;;;0.30;0.28;;;;;;;22.97;38.85;102510.94;16130923;19;129180;-53
2022/08/10 00:43:18;;;;;;;1.48;0.20;;;;;;;22.97;38.77;102505.38;16128039;19;130282;-55
2022/08/10 00:48:44;;;;;;;0.35;0.20;;;;;;;22.96;38.87;102503.66;16130035;19;129638;-53
2022/08/10 00:54:18;;;;;;;2.03;0.22;;;;;;;22.96;39.12;102503.66;16126003;19;129608;-53
2022/08/10 00:59:46;;;;;;;0.35;0.22;;;;;;;22.96;38.96;102492.50;16124452;19;130149;-53
2022/08/10 01:05:20;;;;;;;0.37;0.30;;;;;;;22.95;39.05;102490.81;16129305;19;129232;-53
2022/08/10 01:10:53;;;;;;;0.30;0.30;;;;;;;22.96;39.03;102480.47;16144870;19;130725;-54
2022/08/10 01:16:25;;;;;;;1.25;0.35;;;;;;;22.96;38.39;102480.47;16146657;19;130096;-55
2022/08/10 01:22:24;;;;;;;1.58;0.38;;;;;;;22.95;38.80;102478.81;16138848;19;129741;-55
2022/08/10 01:28:10;;;;;;;0.40;0.22;;;;;;;22.94;38.63;102472.34;16146474;19;130053;-55
2022/08/10 01:33:42;;;;;;;0.98;0.20;;;;;;;22.92;38.63;102474.53;16142192;19;130252;-54
2022/08/10 01:39:31;;;;;;;0.40;0.30;;;;;;;22.93;38.47;102467.03;16135541;19;130176;-55
2022/08/10 01:44:59;;;;;;;0.68;0.30;;;;;;;22.92;38.84;102474.53;16139002;19;131299;-53
2022/08/10 01:50:43;;;;;;;0.40;0.20;;;;;;;22.92;39.01;102468.94;16139164;19;129225;-54
2022/08/10 01:56:24;;;;;;;0.30;0.28;;;;;;;22.91;38.92;102467.25;16140842;19;129582;-53
2022/08/10 02:01:52;;;;;;;0.60;0.25;;;;;;;22.89;38.74;102459.09;16139785;19;130250;-54
2022/08/10 02:07:19;;;;;;;0.28;0.22;;;;;;;22.88;39.17;102459.34;16136916;19;129696;-52
2022/08/10 02:12:43;;;;;;;0.45;0.30;;;;;;;22.89;38.86;102458.25;16139970;19;129443;-54
2022/08/10 02:18:06;;;;;;;0.85;0.30;;;;;;;22.89;38.91;102469.41;16137450;19;129895;-56
2022/08/10 02:23:30;;;;;;;0.45;0.30;;;;;;;22.87;38.93;102466.00;16134478;19;130530;-53
2022/08/10 02:28:53;;;;;;;1.58;0.40;;;;;;;22.88;38.79;102464.91;16137260;19;130053;-53
2022/08/10 02:34:16;;;;;;;0.20;0.20;;;;;;;22.87;38.94;102454.84;16137889;19;129462;-55
2022/08/10 02:39:40;;;;;;;;;;;;;;;22.84;38.63;102467.31;16137816;19;129538;-53
2022/08/10 02:45:10;;;;;;;1.27;0.50;;;;;;;22.87;38.56;102468.78;16133063;19;129436;-52
2022/08/10 02:50:58;;;;;;;0.65;0.30;;;;;;;22.87;38.72;102457.63;16136001;19;129780;-54
2022/08/10 02:56:42;;;;;;;1.02;0.30;;;;;;;22.85;38.93;102451.44;16131977;19;129495;-52
2022/08/10 03:02:07;;;;;;;0.40;0.30;;;;;;;22.84;38.94;102447.78;16137028;19;129063;-52
2022/08/10 03:07:39;;;;;;;0.43;0.38;;;;;;;22.85;39.04;102443.91;16130912;19;130521;-53
2022/08/10 03:13:10;;;;;;;0.63;0.40;;;;;;;22.84;38.92;102444.16;16125326;19;129605;-54
2022/08/10 03:18:33;;;;;;;0.35;0.32;;;;;;;22.84;38.69;102446.94;16126091;19;129803;-53
2022/08/10 03:23:57;;;;;;;0.90;0.30;;;;;;;22.83;38.95;102446.06;16129735;19;129950;-52
2022/08/10 03:29:21;;;;;;;0.47;0.30;;;;;;;22.84;38.79;102452.53;16131171;19;129484;-55
2022/08/10 03:34:42;;;;;;;0.45;0.30;;;;;;;22.83;39.01;102457.22;16135478;19;130516;-54
2022/08/10 03:40:06;;;;;;;0.68;0.30;;;;;;;22.83;39.22;102448.03;16137811;19;129549;-51
2022/08/10 03:45:31;;;;;;;1.27;0.40;;;;;;;22.84;39.00;102455.31;16134105;19;129805;-55
2022/08/10 03:51:14;;;;;;;2.80;0.38;;;;;;;22.82;39.06;102449.97;16136431;19;130195;-55
2022/08/10 03:56:38;;;;;;;0.65;0.40;;;;;;;22.82;38.95;102454.69;16131754;19;129612;-52
2022/08/10 04:02:00;;;;;;;0.88;0.38;;;;;;;22.81;38.71;102448.28;16131489;19;129531;-53
2022/08/10 04:07:43;;;;;;;1.55;0.40;;;;;;;22.82;38.95;102449.13;16125470;19;131887;-50
2022/08/10 04:13:05;;;;;;;0.40;0.30;;;;;;;22.82;39.11;102454.69;16129404;19;131363;-51
2022/08/10 04:18:26;;;;;;;2.00;0.60;;;;;;;22.80;39.01;102452.16;16136254;19;129293;-54
2022/08/10 04:23:50;;;;;;;1.02;0.30;;;;;;;22.81;39.04;102453.84;16130638;19;129889;-55
2022/08/10 04:29:13;;;;;;;;;;;;;;;22.77;39.14;102454.56;16134575;19;129371;-53
2022/08/10 04:34:39;;;;;;;1.70;0.40;;;;;;;22.79;39.19;102464.41;16137475;19;129671;-53
2022/08/10 04:40:02;;;;;;;0.30;0.30;;;;;;;22.77;38.90;102463.78;16139011;19;129150;-51
2022/08/10 04:45:23;;;;;;;1.30;0.40;;;;;;;22.77;39.33;102458.19;16148513;19;129363;-55
2022/08/10 04:51:05;;;;;;;0.57;0.32;;;;;;;22.78;39.14;102464.63;16147821;19;129417;-54
2022/08/10 04:56:29;;;;;;;2.35;0.40;;;;;;;22.76;38.91;102456.50;16150212;19;131017;-54
2022/08/10 05:01:52;;;;;;;1.30;0.40;;;;;;;22.76;38.94;102461.25;16148272;19;129347;-55
2022/08/10 05:07:34;;;;;;;0.75;0.30;;;;;;;22.74;39.21;102459.53;16143185;19;129681;-50
2022/08/10 05:13:14;;;;;;;0.63;0.40;;;;;;;22.77;39.05;102454.56;16148646;19;130004;-49
2022/08/10 05:18:36;;;;;;;0.43;0.30;;;;;;;22.78;39.14;102459.03;16147520;19;129751;-54
2022/08/10 05:24:03;;;;;;;0.57;0.30;;;;;;;22.78;39.08;102457.13;16143445;19;129548;-49
2022/08/10 05:29:25;;;;;;;0.52;0.22;;;;;;;22.76;39.39;102455.66;16144970;19;129515;-51
2022/08/10 05:34:46;;;;;;;1.23;0.40;;;;;;;22.74;39.17;102456.75;16147354;19;129388;-51
2022/08/10 05:40:09;;;;;;;34.78;1.42;;;;;;;22.76;38.96;102452.88;16146469;19;130403;-53
2022/08/10 05:45:30;;;;;;;9.05;0.90;;;;;;;22.76;39.21;102466.81;16143600;19;129893;-56
2022/08/10 05:50:52;;;;;;;7.03;0.80;;;;;;;22.76;39.08;102464.03;16149967;19;130175;-55
2022/08/10 05:56:14;;;;;;;3.83;1.15;;;;;;;22.77;39.32;102462.94;16174002;19;129299;-53
2022/08/10 06:01:42;;;;;;;7.30;1.00;;;;;;;22.78;39.43;102464.63;16171559;19;131833;-54
2022/08/10 06:07:26;;;;;;;3.28;0.93;;;;;;;22.78;39.24;102464.63;16169941;19;130322;-54
2022/08/10 06:14:59;;;;;;;4.53;1.00;;;;;;;22.78;39.19;102473.84;16173437;19;128791;-53
2022/08/10 06:18:52;;;;;;;4.95;0.90;;;;;;;22.79;39.24;102474.69;16171384;19;129200;-55
2022/08/10 06:24:16;;;;;;;2.38;1.00;;;;;;;22.80;39.72;102477.25;16164940;19;129836;-54
2022/08/10 06:29:48;;;;;;;1.17;0.88;;;;;;;22.79;39.60;102481.13;16173810;19;128830;-54
2022/08/10 06:35:10;;;;;;;3.33;0.90;;;;;;;22.78;39.63;102478.56;16175630;19;130412;-56
2022/08/10 06:40:36;;;;;;;3.78;0.70;;;;;;;22.80;39.55;102481.97;16167818;19;129921;-54
2022/08/10 06:46:07;;;;;;;3.80;0.90;;;;;;;22.83;39.63;102467.56;16158671;19;129293;-53
2022/08/10 06:51:32;;;;;;;1.70;1.00;;;;;;;22.84;39.87;102472.06;16140809;19;129685;-49
2022/08/10 06:56:55;;;;;;;;;;;;;;;22.83;39.80;102482.34;16142322;19;129966;-54
2022/08/10 07:02:53;;;;;;;3.90;0.60;;;;;;;22.91;40.00;102477.56;16139716;19;129504;-53
2022/08/10 07:08:22;;;;;;;1.10;0.65;;;;;;;22.91;39.55;102474.78;16137076;19;129459;-57
2022/08/10 07:13:45;;;;;;;0.95;0.60;;;;;;;22.94;39.75;102482.69;16142211;19;129162;-59
2022/08/10 07:19:28;;;;;;;4.88;0.98;;;;;;;22.96;39.88;102495.28;16141809;19;129230;-49
2022/08/10 07:24:51;;;;;;;1.17;0.60;;;;;;;22.99;40.00;102485.59;16139096;19;129080;-54
2022/08/10 07:30:13;;;;;;;0.85;0.57;;;;;;;23.01;39.94;102495.44;16138150;19;129181;-51
2022/08/10 07:35:36;;;;;;;1.80;0.60;;;;;;;23.03;40.21;102493.25;16137680;19;131575;-54
2022/08/10 07:41:06;;;;;;;1.48;0.70;;;;;;;23.07;39.92;102489.97;16136624;19;129033;-55
2022/08/10 07:46:29;;;;;;;3.60;0.93;;;;;;;23.08;39.93;102488.91;16132149;19;129131;-54
2022/08/10 07:51:55;;;;;;;1.20;0.70;;;;;;;23.09;40.00;102490.59;16135544;19;129786;-54
2022/08/10 07:57:24;;;;;;;2.78;0.70;;;;;;;23.09;40.14;102491.44;16134910;19;128952;-52
2022/08/10 08:02:55;;;;;;;4.20;0.80;;;;;;;23.10;39.83;102489.50;16138338;19;129593;-55
2022/08/10 08:08:20;;;;;;;2.17;0.80;;;;;;;23.11;39.93;102494.00;16131691;19;128878;-52
2022/08/10 08:13:42;;;;;;;2.80;0.80;;;;;;;23.11;39.89;102483.69;16135976;19;130012;-52
2022/08/10 08:19:05;;;;;;;2.00;0.75;;;;;;;23.12;39.83;102478.97;16151619;19;129360;-53
2022/08/10 08:24:49;;;;;;;3.00;0.63;;;;;;;23.13;40.04;102494.63;16150595;19;129279;-52
2022/08/10 08:30:14;;;;;;;1.70;0.75;;;;;;;23.12;39.65;102499.34;16151103;19;129151;-55
2022/08/10 08:35:48;;;;;;;1.67;0.70;;;;;;;23.13;39.85;102487.09;16152805;19;128970;-54
2022/08/10 08:41:28;;;;;;;1.80;0.60;;;;;;;23.15;39.75;102489.63;16146039;19;129172;-54
2022/08/10 08:47:12;;;;;;;1.40;0.60;;;;;;;23.14;39.56;102490.75;16146039;19;129555;-54
2022/08/10 08:53:15;;;;;;;1.35;0.60;;;;;;;23.14;40.00;102477.63;16150269;19;130382;-55
2022/08/10 08:59:01;;;;;;;3.33;0.50;;;;;;;23.15;39.88;102481.25;16147668;19;129276;-54
2022/08/10 09:04:41;;;;;;;0.98;0.50;;;;;;;23.16;39.95;102477.38;16149110;19;129459;-54
2022/08/10 09:10:25;;;;;;;0.70;0.60;;;;;;;23.17;39.95;102476.28;16148185;19;128942;-53
2022/08/10 09:16:03;;;;;;;0.88;0.60;;;;;;;23.17;39.96;102462.31;16147543;19;129084;-54
2022/08/10 09:21:40;;;;;;;1.73;0.70;;;;;;;23.17;40.08;102471.56;16144171;19;129698;-53
2022/08/10 09:27:38;;;;;;;1.65;0.70;;;;;;;23.20;40.08;102464.63;16144796;19;128926;-55
2022/08/10 09:33:09;;;;;;;1.15;0.60;;;;;;;23.21;40.18;102457.97;16147040;19;129699;-53
2022/08/10 09:39:14;;;;;;;1.08;0.85;;;;;;;23.26;40.33;102444.16;16147807;19;129553;-54
2022/08/10 09:45:11;;;;;;;1.13;0.50;;;;;;;23.27;40.13;102443.03;16145952;19;129386;-55
2022/08/10 09:50:49;;;;;;;1.38;0.60;;;;;;;23.30;40.33;102447.31;16145409;19;129612;-51
2022/08/10 09:56:52;;;;;;;1.30;0.52;;;;;;;23.31;39.97;102444.25;16145540;19;128961;-54
2022/08/10 10:02:26;;;;;;;1.30;0.70;;;;;;;23.31;39.95;102432.25;16142367;19;129522;-49
2022/08/10 10:07:57;;;;;;;3.50;0.70;;;;;;;23.33;40.17;102419.75;16141385;19;130169;-56
2022/08/10 10:13:33;;;;;;;0.88;0.70;;;;;;;23.32;40.15;102418.03;16143569;19;129643;-56
2022/08/10 10:19:45;;;;;;;1.77;0.88;;;;;;;23.35;39.83;102406.38;16140344;19;129670;-54
2022/08/10 10:25:26;;;;;;;0.80;0.80;;;;;;;23.35;39.84;102405.53;16139810;19;130692;-54
2022/08/10 10:31:31;;;;;;;2.38;0.82;;;;;;;23.33;39.71;102400.19;16142031;19;129697;-56
2022/08/10 10:36:56;;;;;;;2.20;1.33;;;;;;;23.38;40.05;102398.63;16138171;19;129491;-56
2022/08/10 10:42:17;;;;;;;2.88;1.05;;;;;;;23.43;39.64;102393.13;16136193;19;129081;-54
2022/08/10 10:48:18;;;;;;;2.65;1.10;;;;;;;23.49;39.26;102392.19;16138840;19;129245;-54
2022/08/10 10:54:14;;;;;;;6.10;1.45;;;;;;;23.53;39.27;102379.41;16137916;19;129623;-55
2022/08/10 10:59:48;;;;;;;4.43;1.13;;;;;;;23.53;39.43;102373.81;16140511;19;129602;-56
2022/08/10 11:05:29;;;;;;;3.72;1.27;;;;;;;23.56;38.90;102366.91;16140501;19;129110;-55
2022/08/10 11:11:00;;;;;;;4.00;1.35;;;;;;;23.57;39.02;102357.44;16139768;19;129457;-56
2022/08/10 11:16:46;;;;;;;4.47;1.55;;;;;;;23.60;38.65;102335.47;16140561;19;130408;-56
2022/08/10 11:22:17;;;;;;;1.65;1.23;;;;;;;23.58;38.27;102334.88;16135412;19;130126;-54
2022/08/10 11:27:51;;;;;;;11.63;2.00;;;;;;;23.62;38.66;102340.81;16135431;19;129035;-55
2022/08/10 11:33:27;;;;;;;16.92;2.10;;;;;;;23.61;38.57;102342.75;16137408;19;130196;-56
2022/08/10 11:39:26;;;;;;;7.45;1.65;;;;;;;23.62;38.26;102327.69;16136001;19;129272;-56
2022/08/10 11:45:01;;;;;;;9.75;1.75;;;;;;;23.64;38.27;102325.47;16137288;19;130118;-55
2022/08/10 11:50:30;;;;;;;7.20;1.42;;;;;;;23.60;38.29;102340.19;16128790;19;129758;-50
2022/08/10 11:55:55;;;;;;;4.80;1.55;;;;;;;23.58;38.27;102323.69;16129494;19;129580;-53
2022/08/10 12:01:20;;;;;;;4.95;1.65;;;;;;;23.55;38.59;102318.56;16128297;19;129440;-55
2022/08/10 12:06:44;;;;;;;1.60;0.98;;;;;;;23.55;38.38;102321.34;16136113;19;129312;-54
2022/08/10 12:12:17;;;;;;;3.45;1.15;;;;;;;23.55;37.86;102309.34;16126130;19;130449;-55
2022/08/10 12:17:46;;;;;;;2.58;1.08;;;;;;;23.54;38.21;102310.44;16125981;19;130381;-54
2022/08/10 12:23:38;;;;;;;2.22;1.27;;;;;;;23.55;38.18;102304.59;16122663;19;129444;-52
2022/08/10 12:29:12;;;;;;;1.85;0.93;;;;;;;23.54;38.19;102297.31;16118323;19;130189;-54
2022/08/10 12:34:48;;;;;;;2.15;0.95;;;;;;;23.55;38.16;102295.38;16125413;19;129811;-54
2022/08/10 12:40:26;;;;;;;4.57;1.33;;;;;;;23.55;38.35;102284.19;16119442;19;130095;-50
2022/08/10 12:46:12;;;;;;;2.35;0.90;;;;;;;23.57;38.14;102288.44;16122683;19;130051;-53
2022/08/10 12:51:36;;;;;;;0.90;0.80;;;;;;;23.55;38.21;102282.25;16121449;19;129409;-54
2022/08/10 12:57:02;;;;;;;2.40;0.82;;;;;;;23.55;38.12;102287.81;16120302;19;130122;-51
2022/08/10 13:02:33;;;;;;;1.67;0.80;;;;;;;23.56;37.97;102267.19;16128143;19;129250;-54
2022/08/10 13:13:50;;;;;;;2.75;0.93;;;;;;;23.58;37.99;102262.22;16136833;19;129484;-53
2022/08/10 13:19:16;;;;;;;0.95;0.82;;;;;;;23.59;37.80;102261.13;16130291;19;130206;-52
2022/08/10 13:24:47;;;;;;;1.08;0.60;;;;;;;23.58;37.99;102242.69;16132267;19;131174;-52
2022/08/10 13:30:18;;;;;;;2.20;0.90;;;;;;;23.59;37.86;102249.09;16131603;19;129676;-52
2022/08/10 13:36:01;;;;;;;1.23;0.70;;;;;;;23.60;37.90;102245.22;16131024;19;129811;-54
2022/08/10 13:41:26;;;;;;;1.75;0.60;;;;;;;23.60;37.66;102240.50;16133149;19;129301;-52
2022/08/10 13:46:51;;;;;;;1.15;0.80;;;;;;;23.60;37.64;102223.72;16135663;19;129627;-54
2022/08/10 13:52:25;;;;;;;1.55;0.65;;;;;;;23.60;37.47;102229.31;16144686;19;129083;-50
2022/08/10 13:57:51;;;;;;;1.05;0.70;;;;;;;23.61;37.51;102225.44;16142288;19;128861;-54
2022/08/10 14:03:17;;;;;;;1.55;0.50;;;;;;;23.60;37.73;102218.16;16144568;19;129668;-54
2022/08/10 14:08:45;;;;;;;1.98;0.80;;;;;;;23.61;37.52;102205.88;16139585;19;130091;-50
2022/08/10 14:14:13;;;;;;;2.85;0.70;;;;;;;23.64;37.66;102202.56;16142999;19;130921;-54
2022/08/10 14:19:40;;;;;;;2.63;0.70;;;;;;;23.70;37.58;102195.13;16144212;19;129476;-50
2022/08/10 14:25:09;;;;;;;4.82;0.90;;;;;;;23.75;37.39;102186.00;16138218;19;129470;-52
2022/08/10 14:30:33;;;;;;;4.32;1.17;;;;;;;23.76;37.52;102177.38;16137876;19;129413;-50
2022/08/10 14:35:55;;;;;;;3.38;0.90;;;;;;;23.78;37.50;102177.09;16139007;19;129663;-50
2022/08/10 14:41:39;;;;;;;3.35;0.85;;;;;;;23.79;37.44;102174.06;16141037;19;130112;-50
2022/08/10 14:47:25;;;;;;;2.28;0.80;;;;;;;23.81;37.38;102179.41;16140626;19;129348;-53
2022/08/10 14:53:14;;;;;;;1.90;0.77;;;;;;;23.81;37.34;102168.22;16139009;19;129568;-54
2022/08/10 14:58:42;;;;;;;2.05;1.00;;;;;;;23.84;37.14;102167.72;16138508;19;129147;-55
2022/08/10 15:04:26;;;;;;;3.72;0.93;;;;;;;23.85;37.11;102165.75;16142277;19;129769;-54
2022/08/10 15:09:51;;;;;;;3.03;0.80;;;;;;;23.85;37.17;102157.38;16138467;19;129416;-53
2022/08/10 15:15:26;;;;;;;4.30;1.10;;;;;;;23.84;37.15;102164.06;16134978;19;129170;-49
2022/08/10 15:20:55;;;;;;;12.50;1.20;;;;;;;23.84;36.83;102162.13;16138668;19;129921;-52
2022/08/10 15:26:19;;;;;;;8.57;1.30;;;;;;;23.84;36.98;102156.56;16135655;19;129547;-51
2022/08/10 15:37:24;;;;;;;3.88;1.10;;;;;;;23.87;37.00;102155.19;16138646;19;129810;-54
2022/08/10 15:43:23;;;;;;;4.15;1.17;;;;;;;23.85;36.96;102141.47;16135306;19;130811;-53
2022/08/10 15:48:56;;;;;;;4.97;1.30;;;;;;;23.84;36.81;102138.91;16129790;19;130321;-55
2022/08/10 15:54:24;;;;;;;9.65;1.25;;;;;;;23.85;36.90;102137.81;16128300;19;130761;-54
2022/08/10 16:00:05;;;;;;;7.03;1.50;;;;;;;23.86;37.18;102129.22;16135067;19;129266;-56
2022/08/10 16:05:42;;;;;;;7.45;1.60;;;;;;;23.85;37.46;102124.72;16134789;19;129854;-55
2022/08/10 16:11:32;;;;;;;12.73;1.53;;;;;;;23.87;37.46;102121.66;16132370;19;130373;-54
2022/08/10 16:16:59;;;;;;;3.85;1.65;;;;;;;23.87;37.69;102125.31;16132590;19;130670;-55
2022/08/10 16:22:28;;;;;;;11.02;1.63;;;;;;;23.86;37.77;102115.22;16126690;19;130012;-54
2022/08/10 16:28:03;;;;;;;6.30;1.30;;;;;;;23.86;37.94;102118.03;16125828;19;129282;-55
2022/08/10 16:33:28;;;;;;;3.85;1.20;;;;;;;23.85;37.41;102116.31;16126418;19;129769;-54
2022/08/10 16:39:18;;;;;;;7.05;1.20;;;;;;;23.86;37.65;102115.22;16143694;19;130498;-62
2022/08/10 16:45:22;;;;;;;3.72;1.08;;;;;;;23.87;37.86;102108.53;16147927;19;129133;-60
2022/08/10 16:50:54;;;;;;;2.80;1.20;;;;;;;23.88;37.40;102101.81;16138916;19;129464;-60
2022/08/10 16:56:23;;;;;;;6.15;1.10;;;;;;;23.86;37.61;102109.66;16144577;19;130282;-59
2022/08/10 17:01:49;;;;;;;7.22;1.40;;;;;;;23.90;37.46;102099.63;16141026;19;130325;-57
2022/08/10 17:07:16;;;;;;;2.15;1.20;;;;;;;23.92;37.33;102097.44;16142511;19;130116;-57
2022/08/10 17:12:40;;;;;;;8.70;1.48;;;;;;;23.90;37.50;102094.03;16139568;19;129426;-56
2022/08/10 17:18:03;;;;;;;5.25;1.50;;;;;;;23.89;37.45;102097.94;16145271;19;129035;-61
2022/08/10 17:23:32;;;;;;;5.82;1.33;;;;;;;23.91;37.36;102100.50;16138590;19;130136;-55
2022/08/10 17:28:59;;;;;;;4.55;1.35;;;;;;;23.91;37.89;102094.91;16137368;19;130177;-55
2022/08/10 17:34:31;;;;;;;5.80;1.33;;;;;;;23.91;37.49;102086.53;16142029;19;130520;-55
2022/08/10 17:40:07;;;;;;;7.32;1.40;;;;;;;23.93;37.82;102092.72;16143003;19;129769;-56
2022/08/10 17:45:33;;;;;;;8.05;1.35;;;;;;;23.94;37.27;102078.47;16143907;19;129628;-55
2022/08/10 17:51:14;;;;;;;7.15;1.50;;;;;;;23.95;37.54;102074.56;16135099;19;131011;-52
2022/08/10 17:56:37;;;;;;;5.90;1.25;;;;;;;23.96;37.62;102081.84;16142196;19;130336;-55
2022/08/10 18:02:07;;;;;;;3.72;1.67;;;;;;;24.00;37.72;102089.75;16140767;19;129667;-52
2022/08/10 18:07:34;;;;;;;12.57;1.70;;;;;;;24.00;37.53;102086.94;16141481;19;130665;-52
2022/08/10 18:12:58;;;;;;;7.05;1.50;;;;;;;24.00;37.76;102084.97;16144189;19;129394;-55
2022/08/10 18:18:24;;;;;;;11.73;1.67;;;;;;;24.01;37.72;102083.88;16141515;19;129538;-52
2022/08/10 18:23:47;;;;;;;7.38;1.52;;;;;;;24.00;37.79;102087.78;16135283;19;129505;-52
2022/08/10 18:29:19;;;;;;;15.65;2.10;;;;;;;24.03;37.56;102086.41;16134016;19;129394;-55
2022/08/10 18:34:45;;;;;;;11.77;1.80;;;;;;;24.01;37.30;102085.81;16139497;19;130382;-52
2022/08/10 18:40:09;;;;;;;16.52;1.35;;;;;;;23.98;37.73;102089.97;16139361;19;129996;-54
2022/08/10 18:45:33;;;;;;;11.05;1.50;;;;;;;23.93;37.40;102093.53;16138832;19;131078;-55
2022/08/10 18:50:56;;;;;;;9.63;1.35;;;;;;;23.90;37.56;102088.44;16132471;19;129780;-53
2022/08/10 18:56:56;;;;;;;7.65;1.20;;;;;;;23.89;37.49;102089.53;16133078;19;130563;-56
2022/08/10 19:02:33;;;;;;;5.97;1.15;;;;;;;23.84;37.47;102097.88;16136545;19;130855;-53
2022/08/10 19:08:32;;;;;;;7.88;1.50;;;;;;;23.87;37.59;102094.56;16133370;19;129981;-56
2022/08/10 19:14:13;;;;;;;6.38;1.23;;;;;;;23.89;37.78;102097.94;16137235;19;129622;-54
2022/08/10 19:20:03;;;;;;;11.40;2.25;;;;;;;23.89;37.76;102103.53;16135556;19;130478;-55
2022/08/10 19:25:35;;;;;;;3.72;1.13;;;;;;;23.91;37.65;102104.13;16130077;19;130079;-55
2022/08/10 19:31:56;;;;;;;5.45;1.50;;;;;;;23.94;37.53;102112.00;16131625;19;129466;-54
2022/08/10 19:37:45;;;;;;;4.15;1.33;;;;;;;23.92;37.42;102114.19;16134114;19;130158;-53
2022/08/10 19:43:30;;;;;;;2.65;1.17;;;;;;;23.92;37.68;102119.78;16129643;19;130028;-53
2022/08/10 19:49:34;;;;;;;4.93;1.02;;;;;;;23.93;37.73;102126.25;16130223;19;129229;-53
2022/08/10 19:55:18;;;;;;;5.22;1.38;;;;;;;23.92;37.85;102117.00;16133267;19;129225;-57
2022/08/10 20:01:03;;;;;;;6.35;1.08;;;;;;;23.95;37.49;102112.84;16137115;19;128952;-50
2022/08/10 20:06:53;;;;;;;3.17;1.30;;;;;;;24.01;37.36;102122.16;16130490;19;129864;-56
2022/08/10 20:12:44;;;;;;;6.70;1.27;;;;;;;24.02;37.44;102121.06;16129800;19;130164;-53
2022/08/10 20:18:23;;;;;;;6.60;1.13;;;;;;;24.06;37.11;102125.03;16127807;19;130702;-46
2022/08/10 20:23:55;;;;;;;8.68;1.20;;;;;;;24.06;37.92;102122.25;16132297;19;129179;-49
2022/08/10 20:29:31;;;;;;;4.80;0.90;;;;;;;24.06;37.83;102125.03;16131916;19;129672;-48
2022/08/10 20:35:25;;;;;;;7.43;1.08;;;;;;;24.07;37.78;102137.91;16133398;19;129328;-48
2022/08/10 20:40:55;;;;;;;4.55;1.00;;;;;;;24.07;37.96;102127.56;16133674;19;128910;-49
2022/08/10 20:46:24;;;;;;;5.75;0.98;;;;;;;24.06;38.01;102128.66;16132614;19;128982;-50
2022/08/10 20:51:55;;;;;;;5.85;0.90;;;;;;;24.09;37.88;102124.53;16126993;19;130091;-49
2022/08/10 20:57:25;;;;;;;2.58;1.00;;;;;;;24.07;37.87;102123.94;16131861;19;128936;-50
2022/08/10 21:03:38;;;;;;;6.43;1.00;;;;;;;24.07;37.66;102115.56;16130355;19;128980;-53
2022/08/10 21:09:16;;;;;;;3.50;0.75;;;;;;;24.03;37.82;102119.94;16133850;19;129339;-52
2022/08/10 21:14:58;;;;;;;1.92;0.60;;;;;;;23.99;37.81;102124.38;16134484;19;128897;-52
2022/08/10 21:20:51;;;;;;;3.03;0.80;;;;;;;23.96;37.58;102129.38;16130985;19;129404;-54
2022/08/10 23:00:32;;;;;;;1.02;0.60;;;;;;;23.65;37.71;102084.13;16126480;19;130030;-50
2022/08/10 23:06:03;;;;;;;0.98;0.40;;;;;;;23.66;37.39;102079.41;16135636;19;129738;-57
2022/08/10 23:11:28;;;;;;;0.85;0.50;;;;;;;23.64;37.70;102076.84;16134997;19;129610;-57
2022/08/10 23:22:37;;;;;;;0.45;0.40;;;;;;;23.65;37.67;102064.56;16135083;19;130540;-52
2022/08/10 23:28:02;;;;;;;;;;;;;;;23.61;37.58;102073.72;16136722;19;129999;-55
2022/08/10 23:33:34;;;;;;;0.65;0.50;;;;;;;23.62;37.50;102067.91;16135657;19;130735;-57
2022/08/10 23:39:04;;;;;;;0.40;0.30;;;;;;;23.63;37.60;102075.16;16133303;19;129452;-53
2022/08/10 23:45:01;;;;;;;1.85;0.50;;;;;;;23.61;37.52;102071.78;16134423;19;129315;-59
2022/08/10 23:50:24;;;;;;;1.92;0.40;;;;;;;23.62;37.48;102070.69;16130516;19;129151;-54
2022/08/10 23:55:47;;;;;;;0.82;0.45;;;;;;;23.63;37.51;102074.31;16130137;19;130281;-57
